createdAt,value
2018-11-29T00:00:45.865Z,101633.08
2018-11-29T00:03:14.912Z,101626.98
2018-11-29T00:05:43.807Z,101626.63
2018-11-29T00:08:12.837Z,101621.09
2018-11-29T00:10:41.860Z,101624.58
2018-11-29T00:13:10.821Z,101623.66
2018-11-29T00:15:39.927Z,101619.23
2018-11-29T00:18:08.889Z,101615.95
2018-11-29T00:20:37.829Z,101625.47
2018-11-29T00:23:06.771Z,101631.45
2018-11-29T00:25:35.748Z,101617.38
2018-11-29T00:28:04.662Z,101621.11
2018-11-29T00:30:33.654Z,101615.59
2018-11-29T00:33:02.697Z,101611.07
2018-11-29T00:35:31.502Z,101614.64
2018-11-29T00:38:00.416Z,101615.33
2018-11-29T00:40:29.291Z,101609.81
2018-11-29T00:42:58.211Z,101608.42
2018-11-29T00:45:27.416Z,101598.83
2018-11-29T00:47:56.413Z,101595.86
2018-11-29T00:50:25.230Z,101598.00
2018-11-29T00:52:54.344Z,101583.79
2018-11-29T00:55:24.309Z,101584.64
2018-11-29T00:57:53.715Z,101587.16
2018-11-29T01:00:24.856Z,101571.30
2018-11-29T01:02:53.724Z,101580.75
2018-11-29T01:05:22.360Z,101583.44
2018-11-29T01:07:51.209Z,101575.37
2018-11-29T01:10:20.388Z,101576.09
2018-11-29T01:12:49.689Z,101583.05
2018-11-29T01:15:20.575Z,101581.81
2018-11-29T01:17:50.670Z,101544.39
2018-11-29T01:20:20.558Z,101581.95
2018-11-29T01:22:49.706Z,101583.27
2018-11-29T01:25:18.890Z,101589.27
2018-11-29T01:27:49.953Z,101584.66
2018-11-29T01:30:19.824Z,101587.05
2018-11-29T01:32:48.817Z,101583.75
2018-11-29T01:35:18.612Z,101573.88
2018-11-29T01:37:47.536Z,101583.62
2018-11-29T01:40:18.325Z,101577.13
2018-11-29T01:42:49.505Z,101575.54
2018-11-29T01:45:18.695Z,101571.20
2018-11-29T01:47:48.035Z,101575.44
2018-11-29T01:50:16.973Z,101573.45
2018-11-29T01:52:46.649Z,101571.63
2018-11-29T01:55:15.915Z,101566.53
2018-11-29T01:57:45.149Z,101564.29
2018-11-29T02:00:16.954Z,101568.59
2018-11-29T02:02:47.015Z,101569.48
2018-11-29T02:05:16.086Z,101566.14
2018-11-29T02:07:45.021Z,101569.16
2018-11-29T02:10:20.174Z,101578.27
2018-11-29T02:12:49.401Z,101442.39
2018-11-29T02:15:18.562Z,101571.55
2018-11-29T02:17:47.826Z,101564.23
2018-11-29T02:20:17.701Z,101555.07
2018-11-29T02:22:47.195Z,101554.20
2018-11-29T02:25:16.383Z,101553.73
2018-11-29T02:27:45.457Z,101559.23
2018-11-29T02:30:16.955Z,101556.33
2018-11-29T02:32:46.209Z,101549.77
2018-11-29T02:35:15.326Z,101542.53
2018-11-29T02:37:44.561Z,101543.43
2018-11-29T02:40:14.394Z,101535.36
2018-11-29T02:42:43.950Z,101542.77
2018-11-29T02:45:14.998Z,101532.44
2018-11-29T02:47:43.747Z,101538.49
2018-11-29T02:50:12.695Z,101536.38
2018-11-29T02:52:41.690Z,101528.54
2018-11-29T02:55:11.759Z,101533.80
2018-11-29T02:57:40.734Z,101527.90
2018-11-29T03:00:25.543Z,101517.95
2018-11-29T03:02:54.797Z,101517.48
2018-11-29T03:05:23.847Z,101499.64
2018-11-29T03:07:53.130Z,101503.95
2018-11-29T03:10:27.397Z,101493.70
2018-11-29T03:12:56.398Z,101485.53
2018-11-29T03:15:25.337Z,101477.86
2018-11-29T03:17:54.333Z,101465.06
2018-11-29T03:20:23.225Z,101456.41
2018-11-29T03:22:52.196Z,101452.91
2018-11-29T03:25:21.243Z,101446.14
2018-11-29T03:27:50.436Z,101447.58
2018-11-29T03:30:21.162Z,101447.08
2018-11-29T03:32:50.339Z,101435.86
2018-11-29T03:35:19.603Z,101439.09
2018-11-29T03:37:48.666Z,101448.14
2018-11-29T03:40:17.906Z,101436.45
2018-11-29T03:42:47.270Z,101426.11
2018-11-29T03:45:17.338Z,101417.09
2018-11-29T03:47:46.697Z,101425.21
2018-11-29T03:50:16.705Z,101422.64
2018-11-29T03:52:45.943Z,101421.95
2018-11-29T03:55:14.993Z,101413.06
2018-11-29T03:57:44.214Z,101403.17
2018-11-29T04:00:15.286Z,101392.06
2018-11-29T04:02:44.829Z,101374.50
2018-11-29T04:05:14.280Z,101368.59
2018-11-29T04:07:43.443Z,101361.25
2018-11-29T04:10:13.455Z,101349.81
2018-11-29T04:12:42.346Z,101352.47
2018-11-29T04:15:13.331Z,101342.22
2018-11-29T04:17:42.714Z,101325.95
2018-11-29T04:20:14.938Z,101325.10
2018-11-29T04:22:43.836Z,101328.97
2018-11-29T04:25:14.270Z,101316.88
2018-11-29T04:27:43.519Z,101309.09
2018-11-29T04:30:14.447Z,101305.19
2018-11-29T04:32:43.729Z,101295.63
2018-11-29T04:35:13.152Z,101289.56
2018-11-29T04:37:42.079Z,101282.64
2018-11-29T04:40:12.619Z,101280.80
2018-11-29T04:42:41.798Z,101263.52
2018-11-29T04:45:18.329Z,101258.23
2018-11-29T04:47:47.685Z,101256.41
2018-11-29T04:50:17.365Z,101113.69
2018-11-29T04:52:46.758Z,101247.73
2018-11-29T04:55:15.864Z,101248.03
2018-11-29T04:57:45.152Z,101256.53
2018-11-29T05:00:15.900Z,101248.33
2018-11-29T05:02:45.239Z,101243.27
2018-11-29T05:05:14.436Z,101230.84
2018-11-29T05:07:43.228Z,101235.88
2018-11-29T05:10:13.621Z,101226.34
2018-11-29T05:12:42.857Z,101222.38
2018-11-29T05:15:12.631Z,101214.56
2018-11-29T05:17:41.545Z,101198.43
2018-11-29T05:20:10.596Z,101188.94
2018-11-29T05:22:39.595Z,101181.09
2018-11-29T05:25:09.143Z,101180.14
2018-11-29T05:27:38.422Z,101168.83
2018-11-29T05:30:12.609Z,101166.70
2018-11-29T05:32:41.451Z,101165.41
2018-11-29T05:35:11.683Z,101155.33
2018-11-29T05:37:40.649Z,101135.00
2018-11-29T05:40:11.724Z,101142.84
2018-11-29T05:42:40.897Z,101139.70
2018-11-29T05:45:10.795Z,101131.77
2018-11-29T05:47:39.572Z,101130.19
2018-11-29T05:50:10.264Z,101129.38
2018-11-29T05:52:39.121Z,101107.38
2018-11-29T05:55:09.832Z,101098.91
2018-11-29T05:57:38.546Z,101110.18
2018-11-29T06:00:10.303Z,101089.76
2018-11-29T06:02:39.135Z,101077.39
2018-11-29T06:05:09.418Z,101075.73
2018-11-29T06:07:38.314Z,101058.16
2018-11-29T06:10:07.261Z,101055.66
2018-11-29T06:12:35.940Z,101049.51
2018-11-29T06:15:05.580Z,101040.84
2018-11-29T06:17:34.682Z,101031.28
2018-11-29T06:20:03.682Z,101025.23
2018-11-29T06:22:32.895Z,101031.70
2018-11-29T06:25:02.040Z,101022.66
2018-11-29T06:27:30.757Z,101026.07
2018-11-29T06:29:59.571Z,101006.95
2018-11-29T06:32:28.261Z,100994.58
2018-11-29T06:34:57.032Z,101007.98
2018-11-29T06:37:25.775Z,100995.07
2018-11-29T06:39:54.423Z,100984.14
2018-11-29T06:42:23.399Z,100972.67
2018-11-29T06:44:52.513Z,100962.47
2018-11-29T06:47:21.209Z,100946.16
2018-11-29T06:49:50.150Z,100953.65
2018-11-29T06:52:18.912Z,100934.71
2018-11-29T06:54:47.701Z,100916.89
2018-11-29T06:57:16.782Z,100876.52
2018-11-29T06:59:45.789Z,100881.67
2018-11-29T07:02:14.616Z,100867.52
2018-11-29T07:04:43.762Z,100887.25
2018-11-29T07:07:12.852Z,100879.04
2018-11-29T07:09:41.819Z,100864.92
2018-11-29T07:12:10.839Z,100875.33
2018-11-29T07:14:40.250Z,100884.34
2018-11-29T07:17:09.286Z,100886.77
2018-11-29T07:19:38.238Z,100870.99
2018-11-29T07:22:06.958Z,100883.38
2018-11-29T07:24:35.864Z,100873.33
2018-11-29T07:27:04.580Z,100880.08
2018-11-29T07:29:33.326Z,100885.48
2018-11-29T07:32:02.491Z,100875.98
2018-11-29T07:34:31.516Z,100881.92
2018-11-29T07:37:00.923Z,100872.45
2018-11-29T07:39:29.899Z,100868.45
2018-11-29T07:41:59.098Z,100535.34
2018-11-29T07:44:27.951Z,100844.65
2018-11-29T07:46:57.183Z,100859.78
2018-11-29T07:49:26.142Z,100844.89
2018-11-29T07:51:54.925Z,100847.58
2018-11-29T07:54:23.801Z,100823.35
2018-11-29T07:56:53.562Z,100839.84
2018-11-29T07:59:22.685Z,100836.81
2018-11-29T08:01:51.894Z,100819.78
2018-11-29T08:04:20.985Z,100822.34
2018-11-29T08:06:49.872Z,100786.47
2018-11-29T08:09:18.975Z,100797.14
2018-11-29T08:11:48.056Z,100805.05
2018-11-29T08:14:16.844Z,100790.72
2018-11-29T08:16:45.710Z,100787.16
2018-11-29T08:19:14.745Z,100786.84
2018-11-29T08:21:43.487Z,100789.37
2018-11-29T08:24:12.587Z,100782.49
2018-11-29T08:26:41.816Z,100790.45
2018-11-29T08:29:10.610Z,100792.84
2018-11-29T08:31:39.876Z,100802.86
2018-11-29T08:34:08.737Z,100814.05
2018-11-29T08:36:37.592Z,100795.48
2018-11-29T08:39:09.525Z,100812.38
2018-11-29T08:41:38.474Z,100795.94
2018-11-29T08:44:07.352Z,100775.17
2018-11-29T08:46:36.295Z,100773.42
2018-11-29T08:49:05.869Z,100794.45
2018-11-29T08:51:34.831Z,100771.57
2018-11-29T08:54:03.589Z,100755.40
2018-11-29T08:56:32.414Z,100758.19
2018-11-29T08:59:01.227Z,100747.35
2018-11-29T09:01:30.162Z,100746.84
2018-11-29T09:03:59.052Z,100737.58
2018-11-29T09:06:28.237Z,100731.55
2018-11-29T09:08:56.939Z,100726.84
2018-11-29T09:11:25.900Z,100720.04
2018-11-29T09:13:54.847Z,100696.25
2018-11-29T09:16:23.827Z,100709.84
2018-11-29T09:18:52.826Z,100730.08
2018-11-29T09:21:21.744Z,100730.25
2018-11-29T09:23:50.768Z,100659.43
2018-11-29T09:26:20.039Z,100703.94
2018-11-29T09:28:49.045Z,100682.28
2018-11-29T09:31:17.923Z,100669.64
2018-11-29T09:33:47.496Z,100656.95
2018-11-29T09:36:16.648Z,100688.30
2018-11-29T09:38:45.622Z,100716.58
2018-11-29T09:41:14.410Z,100677.02
2018-11-29T09:43:43.315Z,100674.41
2018-11-29T09:46:11.983Z,100690.05
2018-11-29T09:48:40.985Z,100690.80
2018-11-29T09:51:09.812Z,100674.52
2018-11-29T09:53:38.691Z,100655.91
2018-11-29T09:56:07.505Z,100662.57
2018-11-29T09:58:36.662Z,100646.52
2018-11-29T10:01:05.569Z,100633.44
2018-11-29T10:03:34.654Z,100630.37
2018-11-29T10:06:03.631Z,100620.20
2018-11-29T10:08:32.362Z,100637.66
2018-11-29T10:11:01.050Z,100626.32
2018-11-29T10:13:30.027Z,100624.52
2018-11-29T10:15:58.945Z,100606.77
2018-11-29T10:18:27.934Z,100607.62
2018-11-29T10:20:56.713Z,100614.94
2018-11-29T10:23:25.771Z,100608.81
2018-11-29T10:25:54.783Z,100597.84
2018-11-29T10:28:23.567Z,100616.49
2018-11-29T10:30:54.951Z,100617.80
2018-11-29T10:33:23.708Z,100608.67
2018-11-29T10:35:58.693Z,100622.06
2018-11-29T10:38:21.764Z,100614.94
2018-11-29T10:40:50.722Z,100600.09
2018-11-29T10:43:19.868Z,100603.69
2018-11-29T10:45:48.742Z,100593.17
2018-11-29T10:48:20.056Z,100593.31
2018-11-29T10:50:48.948Z,100594.92
2018-11-29T10:53:17.772Z,100565.02
2018-11-29T10:55:46.932Z,100589.14
2018-11-29T10:58:15.668Z,100551.72
2018-11-29T11:00:49.620Z,100571.68
2018-11-29T11:03:19.410Z,100559.09
2018-11-29T11:05:50.444Z,100545.05
2018-11-29T11:08:19.279Z,100540.23
2018-11-29T11:10:48.203Z,100553.28
2018-11-29T11:13:17.296Z,100537.51
2018-11-29T11:15:46.260Z,100549.42
2018-11-29T11:18:15.717Z,100541.28
2018-11-29T11:20:44.962Z,100541.94
2018-11-29T11:23:14.077Z,100530.40
2018-11-29T11:25:42.960Z,100554.98
2018-11-29T11:28:11.783Z,100535.35
2018-11-29T11:30:42.760Z,100525.77
2018-11-29T11:33:12.384Z,100532.34
2018-11-29T11:35:41.539Z,100557.47
2018-11-29T11:38:10.638Z,100539.61
2018-11-29T11:40:40.086Z,100531.30
2018-11-29T11:43:09.540Z,100538.81
2018-11-29T11:45:39.309Z,100542.78
2018-11-29T11:48:08.822Z,100541.98
2018-11-29T11:50:38.232Z,100540.23
2018-11-29T11:53:08.414Z,100517.88
2018-11-29T11:55:37.938Z,100529.53
2018-11-29T11:58:07.891Z,100530.84
2018-11-29T12:00:37.209Z,100513.88
2018-11-29T12:03:14.173Z,100527.72
2018-11-29T12:05:43.137Z,100531.30
2018-11-29T12:08:12.395Z,100531.30
2018-11-29T12:10:42.638Z,100524.02
2018-11-29T12:13:12.279Z,100525.77
2018-11-29T12:15:41.321Z,100514.14
2018-11-29T12:18:11.762Z,100535.56
2018-11-29T12:20:40.848Z,100536.52
2018-11-29T12:23:10.278Z,100539.64
2018-11-29T12:25:39.343Z,100527.45
2018-11-29T12:28:08.900Z,100535.98
2018-11-29T12:30:41.148Z,100524.36
2018-11-29T12:33:10.044Z,100522.21
2018-11-29T12:35:38.956Z,100529.75
2018-11-29T12:38:08.374Z,100526.62
2018-11-29T12:40:37.697Z,100533.26
2018-11-29T12:43:07.122Z,100532.06
2018-11-29T12:45:36.067Z,100536.88
2018-11-29T12:48:05.092Z,100537.81
2018-11-29T12:50:35.598Z,100542.63
2018-11-29T12:53:04.826Z,100543.88
2018-11-29T12:55:33.696Z,100542.09
2018-11-29T12:58:05.916Z,100541.98
2018-11-29T13:00:32.225Z,100547.54
2018-11-29T13:03:01.702Z,100545.19
2018-11-29T13:05:30.959Z,100554.45
2018-11-29T13:08:00.224Z,100557.06
2018-11-29T13:10:29.248Z,100550.55
2018-11-29T13:12:58.318Z,100545.78
2018-11-29T13:15:34.507Z,100543.58
2018-11-29T13:18:05.286Z,100555.86
2018-11-29T13:20:34.487Z,100556.72
2018-11-29T13:23:03.767Z,100552.35
2018-11-29T13:25:32.846Z,100556.66
2018-11-29T13:28:01.772Z,100557.17
2018-11-29T13:30:31.020Z,100401.38
2018-11-29T13:32:59.910Z,100550.31
2018-11-29T13:35:34.781Z,100556.97
2018-11-29T13:38:07.943Z,100557.36
2018-11-29T13:40:37.266Z,100562.18
2018-11-29T13:43:06.753Z,100545.63
2018-11-29T13:45:35.861Z,100553.51
2018-11-29T13:48:05.098Z,100555.20
2018-11-29T13:50:34.094Z,100559.23
2018-11-29T13:53:03.273Z,100554.81
2018-11-29T13:55:33.941Z,100548.40
2018-11-29T13:58:03.203Z,100547.95
2018-11-29T14:00:32.153Z,100540.08
2018-11-29T14:03:06.887Z,100531.41
2018-11-29T14:05:36.556Z,100531.06
2018-11-29T14:08:06.338Z,100535.11
2018-11-29T14:10:35.447Z,100542.02
2018-11-29T14:13:04.513Z,100534.06
2018-11-29T14:15:34.271Z,100531.91
2018-11-29T14:18:03.994Z,100547.95
2018-11-29T14:20:35.515Z,100548.40
2018-11-29T14:23:02.646Z,100555.20
2018-11-29T14:25:32.811Z,100554.02
2018-11-29T14:28:01.919Z,100543.93
2018-11-29T14:30:31.882Z,100545.23
2018-11-29T14:33:02.175Z,100554.02
2018-11-29T14:35:33.259Z,100554.41
2018-11-29T14:38:02.588Z,100558.72
2018-11-29T14:40:38.718Z,100566.59
2018-11-29T14:43:08.479Z,100554.92
2018-11-29T14:45:38.502Z,100554.52
2018-11-29T14:48:08.926Z,100569.70
2018-11-29T14:50:41.250Z,100562.69
2018-11-29T14:53:12.485Z,100566.19
2018-11-29T14:55:44.195Z,100558.83
2018-11-29T14:58:19.445Z,100555.77
2018-11-29T15:00:44.662Z,100545.23
2018-11-29T15:03:15.550Z,100553.05
2018-11-29T15:05:46.061Z,100549.59
2018-11-29T15:08:15.993Z,100541.94
2018-11-29T15:10:46.053Z,100562.42
2018-11-29T15:13:15.329Z,100535.96
2018-11-29T15:15:45.191Z,100541.94
2018-11-29T15:18:16.662Z,100543.64
2018-11-29T15:20:48.090Z,100526.84
2018-11-29T15:23:20.343Z,100518.56
2018-11-29T15:25:53.819Z,100532.91
2018-11-29T15:28:23.916Z,100526.39
2018-11-29T15:30:54.454Z,100523.94
2018-11-29T15:33:24.035Z,100533.46
2018-11-29T15:35:54.581Z,100524.28
2018-11-29T15:38:23.993Z,100531.20
2018-11-29T15:40:54.620Z,100521.68
2018-11-29T15:43:25.004Z,100528.14
2018-11-29T15:45:55.605Z,100523.83
2018-11-29T15:48:25.303Z,100520.72
2018-11-29T15:50:54.952Z,100525.48
2018-11-29T15:53:25.790Z,100518.87
2018-11-29T15:55:55.758Z,100520.63
2018-11-29T15:58:25.914Z,100531.34
2018-11-29T16:00:56.096Z,100501.43
2018-11-29T16:03:25.125Z,100503.53
2018-11-29T16:05:55.176Z,100500.92
2018-11-29T16:08:25.887Z,100481.03
2018-11-29T16:10:57.110Z,100482.73
2018-11-29T16:13:27.647Z,100480.63
2018-11-29T16:16:00.048Z,100476.33
2018-11-29T16:18:31.609Z,100466.30
2018-11-29T16:21:03.012Z,100469.75
2018-11-29T16:23:35.816Z,100462.33
2018-11-29T16:26:11.401Z,100480.38
2018-11-29T16:28:47.562Z,100496.72
2018-11-29T16:31:26.791Z,100497.52
2018-11-29T16:33:58.239Z,100504.83
2018-11-29T16:36:30.824Z,100488.34
2018-11-29T16:39:00.892Z,100519.48
2018-11-29T16:41:31.100Z,100507.75
2018-11-29T16:44:03.495Z,100509.99
2018-11-29T16:46:36.810Z,100506.59
2018-11-29T16:49:07.157Z,100505.68
2018-11-29T16:51:38.201Z,100509.99
2018-11-29T16:54:09.186Z,100516.36
2018-11-29T16:56:41.122Z,100512.45
2018-11-29T16:59:14.302Z,100501.58
2018-11-29T17:01:46.531Z,100534.11
2018-11-29T17:04:19.413Z,100527.84
2018-11-29T17:06:51.527Z,100533.52
2018-11-29T17:09:21.767Z,100533.15
2018-11-29T17:11:54.296Z,100524.53
2018-11-29T17:14:32.521Z,100527.93
2018-11-29T17:17:05.347Z,100530.00
2018-11-29T17:19:37.800Z,100528.70
2018-11-29T17:22:10.967Z,100521.33
2018-11-29T17:24:44.594Z,100526.14
2018-11-29T17:27:15.252Z,100531.30
2018-11-29T17:29:46.140Z,100517.36
2018-11-29T17:32:20.993Z,100516.06
2018-11-29T17:34:52.652Z,100505.52
2018-11-29T17:37:23.481Z,100503.42
2018-11-29T17:39:55.186Z,100504.33
2018-11-29T17:42:28.661Z,100511.75
2018-11-29T17:45:02.750Z,100504.38
2018-11-29T17:47:34.586Z,100501.37
2018-11-29T17:50:08.628Z,100489.64
2018-11-29T17:52:40.668Z,100487.03
2018-11-29T17:55:13.062Z,100483.52
2018-11-29T17:57:44.003Z,100480.75
2018-11-29T18:00:20.716Z,100481.06
2018-11-29T18:02:53.730Z,100480.09
2018-11-29T18:05:25.517Z,100473.32
2018-11-29T18:07:55.217Z,100478.59
2018-11-29T18:10:29.530Z,100472.98
2018-11-29T18:13:08.606Z,100478.66
2018-11-29T18:15:38.661Z,100475.98
2018-11-29T18:18:11.116Z,100471.81
2018-11-29T18:20:43.882Z,100490.02
2018-11-29T18:23:14.959Z,100479.58
2018-11-29T18:25:55.102Z,100478.67
2018-11-29T18:28:28.005Z,100488.31
2018-11-29T18:30:58.737Z,100479.58
2018-11-29T18:33:32.690Z,100495.73
2018-11-29T18:36:03.751Z,100496.93
2018-11-29T18:38:35.547Z,100495.53
2018-11-29T18:41:06.624Z,100496.98
2018-11-29T18:43:41.512Z,100502.59
2018-11-29T18:46:17.178Z,100493.38
2018-11-29T18:48:44.962Z,100484.66
2018-11-29T18:51:19.923Z,100484.99
2018-11-29T18:53:51.783Z,100496.78
2018-11-29T18:56:24.500Z,100468.09
2018-11-29T18:59:10.515Z,100502.39
2018-11-29T19:01:47.345Z,100477.63
2018-11-29T19:04:16.886Z,100481.59
2018-11-29T19:06:49.967Z,100478.92
2018-11-29T19:09:21.953Z,100463.22
2018-11-29T19:11:56.428Z,100464.52
2018-11-29T19:14:28.687Z,100474.56
2018-11-29T19:17:03.785Z,100477.11
2018-11-29T19:19:35.111Z,100466.68
2018-11-29T19:22:07.696Z,100462.71
2018-11-29T19:27:16.494Z,100464.83
2018-11-29T19:29:48.313Z,100465.32
2018-11-29T19:32:25.245Z,100466.23
2018-11-29T19:34:55.100Z,100452.64
2018-11-29T19:37:25.022Z,100463.53
2018-11-29T19:39:56.611Z,100470.53
2018-11-29T19:42:28.586Z,100472.59
2018-11-29T19:45:00.511Z,100471.75
2018-11-29T19:47:35.262Z,100472.59
2018-11-29T19:50:09.357Z,100478.72
2018-11-29T19:52:44.946Z,100470.39
2018-11-29T19:55:19.671Z,100465.45
2018-11-29T19:57:50.662Z,100471.48
2018-11-29T20:00:25.843Z,100471.82
2018-11-29T20:03:00.231Z,100476.13
2018-11-29T20:05:30.263Z,100484.86
2018-11-29T20:08:00.808Z,100501.76
2018-11-29T20:10:36.951Z,100479.59
2018-11-29T20:13:17.079Z,100472.46
2018-11-29T20:15:51.885Z,100481.98
2018-11-29T20:18:27.197Z,100480.23
2018-11-29T20:20:59.309Z,100475.08
2018-11-29T20:23:31.480Z,100479.84
2018-11-29T20:26:04.483Z,100488.39
2018-11-29T20:28:37.228Z,100491.41
2018-11-29T20:31:08.377Z,100473.53
2018-11-29T20:33:39.364Z,100467.86
2018-11-29T20:36:12.064Z,100478.75
2018-11-29T20:38:49.186Z,100481.67
2018-11-29T20:41:19.526Z,100479.51
2018-11-29T20:43:52.411Z,100472.93
2018-11-29T20:46:22.384Z,100475.54
2018-11-29T20:48:53.656Z,100454.16
2018-11-29T20:51:23.965Z,100461.59
2018-11-29T20:53:55.685Z,100460.67
2018-11-29T20:56:33.224Z,100474.57
2018-11-29T20:59:08.802Z,100465.05
2018-11-29T21:01:41.902Z,100465.50
2018-11-29T21:04:13.705Z,100465.50
2018-11-29T21:06:47.229Z,100458.58
2018-11-29T21:09:17.928Z,100453.70
2018-11-29T21:11:51.181Z,100448.88
2018-11-29T21:14:21.951Z,100450.58
2018-11-29T21:16:54.722Z,100471.05
2018-11-29T21:19:25.213Z,100453.19
2018-11-29T21:21:58.780Z,100463.92
2018-11-29T21:24:35.043Z,100461.71
2018-11-29T21:27:07.553Z,100459.61
2018-11-29T21:29:38.758Z,100459.16
2018-11-29T21:32:10.200Z,100450.09
2018-11-29T21:34:41.277Z,100453.19
2018-11-29T21:37:11.918Z,100449.73
2018-11-29T21:39:45.141Z,100445.81
2018-11-29T21:42:19.702Z,100451.39
2018-11-29T21:44:50.455Z,100448.42
2018-11-29T21:47:23.822Z,100444.56
2018-11-29T21:49:55.586Z,100451.94
2018-11-29T21:52:25.682Z,100455.00
2018-11-29T21:54:55.521Z,100455.00
2018-11-29T21:57:25.486Z,100467.53
2018-11-29T21:59:56.076Z,100448.54
2018-11-29T22:02:26.654Z,100458.06
2018-11-29T22:04:59.763Z,100451.48
2018-11-29T22:07:30.096Z,100447.56
2018-11-29T22:09:59.425Z,100452.33
2018-11-29T22:12:32.507Z,100451.48
2018-11-29T22:15:07.575Z,100457.67
2018-11-29T22:17:39.938Z,100448.94
2018-11-29T22:20:10.368Z,100441.17
2018-11-29T22:22:40.793Z,100446.78
2018-11-29T22:25:12.369Z,100444.56
2018-11-29T22:27:41.994Z,100451.03
2018-11-29T22:30:11.058Z,100459.31
2018-11-29T22:32:40.589Z,100441.77
2018-11-29T22:35:10.195Z,100431.19
2018-11-29T22:37:40.637Z,100434.31
2018-11-29T22:40:09.944Z,100431.45
2018-11-29T22:42:40.140Z,100430.55
2018-11-29T22:45:09.676Z,100429.19
2018-11-29T22:47:39.329Z,100425.91
2018-11-29T22:50:09.665Z,100420.05
2018-11-29T22:52:39.263Z,100417.56
2018-11-29T22:55:08.418Z,100417.11
2018-11-29T22:57:38.006Z,100409.34
2018-11-29T23:00:12.355Z,100406.22
2018-11-29T23:02:43.230Z,100407.03
2018-11-29T23:05:13.575Z,100410.89
2018-11-29T23:07:42.667Z,100394.66
2018-11-29T23:10:17.917Z,100284.30
2018-11-29T23:12:47.417Z,100390.02
2018-11-29T23:15:16.489Z,100387.80
2018-11-29T23:19:59.064Z,100385.52
2018-11-29T23:22:28.504Z,100380.36
2018-11-29T23:24:58.641Z,100385.46
2018-11-29T23:27:28.453Z,100378.45
2018-11-29T23:29:59.059Z,100373.17
2018-11-29T23:32:28.683Z,100373.23
2018-11-29T23:34:57.754Z,100376.95
2018-11-29T23:37:26.976Z,100376.11
2018-11-29T23:39:56.660Z,100371.58
2018-11-29T23:42:25.918Z,100369.91
2018-11-29T23:44:56.381Z,100368.61
2018-11-29T23:47:25.551Z,100366.06
2018-11-29T23:49:54.497Z,100361.98
2018-11-29T23:52:23.493Z,100369.31
2018-11-29T23:54:52.821Z,100367.89
2018-11-29T23:57:22.243Z,100360.19
2018-11-29T23:59:52.504Z,100356.14
